Time;durP1;ratioP1;P1;durP2;ratioP2;P2;SDS_P1;SDS_P2;PMS_P1;PMS_P2;Temp;Humidity;BMP_temperature;BMP_pressure;BME280_temperature;BME280_humidity;BME280_pressure;Samples;Min_cycle;Max_cycle;Signal;HPM_P1;HPM_P2
2021/04/04 00:01:04;;;;;;;4.93;3.42;;;;;;;;;;4960425;29;20599;-83
2021/04/04 00:03:32;;;;;;;4.68;4.25;;;;;;;;;;4958447;29;20240;-85
2021/04/04 00:05:58;;;;;;;10.32;3.78;;;;;;;;;;4956611;29;20254;-86
2021/04/04 00:08:24;;;;;;;6.70;3.43;;;;;;;;;;4958383;29;20249;-82
2021/04/04 00:10:50;;;;;;;8.43;4.20;;;;;;;;;;4940132;29;20442;-80
2021/04/04 00:13:16;;;;;;;5.23;3.70;;;;;;;;;;4956623;29;20510;-84
2021/04/04 00:15:42;;;;;;;9.60;4.10;;;;;;;;;;4955643;28;20421;-82
2021/04/04 00:18:08;;;;;;;5.28;3.60;;;;;;;;;;4956414;29;20418;-86
2021/04/04 00:20:34;;;;;;;5.20;4.03;;;;;;;;;;4956007;29;20360;-87
2021/04/04 00:23:00;;;;;;;9.82;3.55;;;;;;;;;;4956162;29;20278;-80
2021/04/04 00:25:26;;;;;;;4.53;3.33;;;;;;;;;;4955935;29;20633;-81
2021/04/04 00:30:56;;;;;;;4.53;3.13;;;;;;;;;;4956080;29;20177;-80
2021/04/04 00:33:22;;;;;;;7.93;3.75;;;;;;;;;;4955905;29;20269;-83
2021/04/04 00:35:48;;;;;;;4.43;3.00;;;;;;;;;;4955766;29;20202;-85
2021/04/04 00:38:15;;;;;;;6.20;3.70;;;;;;;;;;4956013;29;20185;-85
2021/04/04 00:40:41;;;;;;;5.70;4.00;;;;;;;;;;4955766;29;20182;-86
2021/04/04 00:46:10;;;;;;;5.78;4.40;;;;;;;;;;4967218;29;20201;-74
2021/04/04 00:48:36;;;;;;;10.02;4.13;;;;;;;;;;4975900;29;20270;-81
2021/04/04 00:51:03;;;;;;;5.53;4.13;;;;;;;;;;4970664;29;20175;-87
2021/04/04 00:53:29;;;;;;;6.35;3.95;;;;;;;;;;4959158;29;20470;-83
2021/04/04 00:55:55;;;;;;;8.07;3.70;;;;;;;;;;4939231;29;20663;-81
2021/04/04 01:01:25;;;;;;;7.05;3.67;;;;;;;;;;4955925;29;20206;-84
2021/04/04 01:03:51;;;;;;;4.38;3.35;;;;;;;;;;4955438;29;20244;-86
2021/04/04 01:06:17;;;;;;;8.55;4.53;;;;;;;;;;4955476;29;20175;-86
2021/04/04 01:08:43;;;;;;;8.18;4.38;;;;;;;;;;4938924;29;20191;-86
2021/04/04 01:11:10;;;;;;;3.93;3.07;;;;;;;;;;4956387;29;20258;-86
2021/04/04 01:16:41;;;;;;;3.55;3.25;;;;;;;;;;4956058;29;20270;-85
2021/04/04 01:19:30;;;;;;;4.43;3.20;;;;;;;;;;4955249;29;20171;-87
2021/04/04 01:22:04;;;;;;;7.35;3.70;;;;;;;;;;4928297;29;20198;-84
2021/04/04 01:24:39;;;;;;;7.25;4.53;;;;;;;;;;4954993;29;20178;-85
2021/04/04 01:27:15;;;;;;;5.93;3.10;;;;;;;;;;4937061;29;20220;-87
2021/04/04 01:29:42;;;;;;;2.88;2.63;;;;;;;;;;4937683;29;20190;-88
2021/04/04 01:32:09;;;;;;;5.72;3.55;;;;;;;;;;4938039;29;20667;-86
2021/04/04 01:34:36;;;;;;;2.97;2.67;;;;;;;;;;4957128;29;20166;-78
2021/04/04 01:37:04;;;;;;;5.60;3.28;;;;;;;;;;4955908;29;20227;-83
2021/04/04 01:39:34;;;;;;;4.63;3.33;;;;;;;;;;4958905;29;20182;-85
2021/04/04 01:42:00;;;;;;;5.05;3.10;;;;;;;;;;4958334;29;20185;-85
2021/04/04 01:44:27;;;;;;;6.45;4.35;;;;;;;;;;4955787;29;20197;-87
2021/04/04 01:46:55;;;;;;;5.22;3.28;;;;;;;;;;4955280;29;20294;-86
2021/04/04 01:49:21;;;;;;;9.98;3.72;;;;;;;;;;4954762;29;20170;-84
2021/04/04 01:51:49;;;;;;;3.65;2.83;;;;;;;;;;4955038;29;20225;-85
2021/04/04 01:54:17;;;;;;;4.93;3.67;;;;;;;;;;4955023;29;20174;-84
2021/04/04 01:56:44;;;;;;;6.47;3.85;;;;;;;;;;4955208;29;20177;-86
2021/04/04 01:59:11;;;;;;;8.52;3.75;;;;;;;;;;4954454;29;20228;-85
2021/04/04 02:01:37;;;;;;;7.13;3.42;;;;;;;;;;4955056;29;20525;-87
2021/04/04 02:04:07;;;;;;;4.32;2.92;;;;;;;;;;4954691;29;20176;-86
2021/04/04 02:06:36;;;;;;;3.50;2.70;;;;;;;;;;4955060;29;20172;-87
2021/04/04 02:09:05;;;;;;;8.38;2.90;;;;;;;;;;4955107;29;20178;-85
2021/04/04 02:11:32;;;;;;;8.55;3.20;;;;;;;;;;4955020;29;20166;-87
2021/04/04 02:17:02;;;;;;;6.20;3.25;;;;;;;;;;4957323;29;20183;-86
2021/04/04 02:19:29;;;;;;;8.95;4.03;;;;;;;;;;4957112;29;20179;-84
2021/04/04 02:21:56;;;;;;;3.05;2.70;;;;;;;;;;4957078;29;20187;-87
2021/04/04 02:24:23;;;;;;;3.50;3.20;;;;;;;;;;4955932;29;20176;-88
2021/04/04 02:26:51;;;;;;;5.45;2.90;;;;;;;;;;4956334;29;20215;-86
2021/04/04 02:29:17;;;;;;;6.22;2.97;;;;;;;;;;4956217;29;20199;-87
2021/04/04 02:31:51;;;;;;;6.15;3.38;;;;;;;;;;4955835;29;20178;-86
2021/04/04 02:34:21;;;;;;;7.18;3.20;;;;;;;;;;4968663;29;20231;-82
2021/04/04 02:36:47;;;;;;;5.22;2.90;;;;;;;;;;4974183;29;20269;-84
2021/04/04 02:39:22;;;;;;;5.50;3.13;;;;;;;;;;4972562;28;20176;-85
2021/04/04 02:41:48;;;;;;;4.65;3.00;;;;;;;;;;4966899;29;20598;-86
2021/04/04 02:47:21;;;;;;;5.25;2.65;;;;;;;;;;4958433;29;20262;-86
2021/04/04 02:49:48;;;;;;;3.95;2.75;;;;;;;;;;4957991;29;20632;-84
2021/04/04 02:52:16;;;;;;;8.25;2.97;;;;;;;;;;4957840;29;20227;-87
2021/04/04 02:54:43;;;;;;;5.07;2.45;;;;;;;;;;4957655;29;20207;-87
2021/04/04 02:57:09;;;;;;;8.38;3.00;;;;;;;;;;4957979;29;20185;-85
2021/04/04 02:59:43;;;;;;;3.13;2.65;;;;;;;;;;4957496;29;20173;-83
2021/04/04 03:02:11;;;;;;;8.13;3.05;;;;;;;;;;4957509;29;20176;-84
2021/04/04 03:04:39;;;;;;;5.40;2.80;;;;;;;;;;4957792;29;20168;-86
2021/04/04 03:07:05;;;;;;;7.07;3.13;;;;;;;;;;4957917;29;20264;-88
2021/04/04 03:09:32;;;;;;;10.13;3.40;;;;;;;;;;4957663;29;20172;-88
2021/04/04 03:11:58;;;;;;;2.67;2.40;;;;;;;;;;4957502;29;20165;-85
2021/04/04 03:17:28;;;;;;;2.90;2.70;;;;;;;;;;4960455;29;20547;-81
2021/04/04 03:19:55;;;;;;;3.13;2.80;;;;;;;;;;4957727;29;20576;-83
2021/04/04 03:22:22;;;;;;;3.63;3.15;;;;;;;;;;4957278;29;20858;-84
2021/04/04 03:24:49;;;;;;;7.13;4.10;;;;;;;;;;4957337;29;20181;-84
2021/04/04 03:33:06;;;;;;;6.18;3.88;;;;;;;;;;4957748;29;20215;-86
2021/04/04 03:35:34;;;;;;;3.30;2.13;;;;;;;;;;4957021;29;20172;-84
2021/04/04 03:38:01;;;;;;;4.10;2.90;;;;;;;;;;4957081;29;20173;-81
2021/04/04 03:40:27;;;;;;;4.53;2.40;;;;;;;;;;4956868;29;20189;-86
2021/04/04 03:42:53;;;;;;;3.03;2.78;;;;;;;;;;4957114;29;20157;-87
2021/04/04 03:45:20;;;;;;;4.82;2.70;;;;;;;;;;4957041;29;20168;-82
2021/04/04 03:47:47;;;;;;;4.55;3.50;;;;;;;;;;4956854;29;20542;-86
2021/04/04 03:50:13;;;;;;;3.97;2.03;;;;;;;;;;4955516;28;20200;-84
2021/04/04 03:52:40;;;;;;;5.07;2.50;;;;;;;;;;4956658;29;20245;-84
2021/04/04 03:55:07;;;;;;;4.38;3.05;;;;;;;;;;4956660;29;20169;-86
2021/04/04 04:03:23;;;;;;;3.75;2.60;;;;;;;;;;4957037;29;20236;-85
2021/04/04 04:05:49;;;;;;;4.32;2.85;;;;;;;;;;4956443;29;20180;-85
2021/04/04 04:08:19;;;;;;;3.13;2.30;;;;;;;;;;4956397;29;20217;-88
2021/04/04 04:10:45;;;;;;;8.73;3.00;;;;;;;;;;4939472;29;20207;-85
2021/04/04 04:13:12;;;;;;;3.90;2.08;;;;;;;;;;4956745;29;20183;-87
2021/04/04 04:15:38;;;;;;;5.20;2.50;;;;;;;;;;4956796;29;20280;-84
2021/04/04 04:18:05;;;;;;;5.65;3.15;;;;;;;;;;4939472;29;20245;-86
2021/04/04 04:20:31;;;;;;;5.43;3.15;;;;;;;;;;4966036;29;20196;-76
2021/04/04 04:22:58;;;;;;;4.38;2.53;;;;;;;;;;4969235;29;20192;-86
2021/04/04 04:25:25;;;;;;;3.58;2.45;;;;;;;;;;4941737;29;20546;-86
2021/04/04 04:27:53;;;;;;;5.68;2.42;;;;;;;;;;4965215;29;20239;-78
2021/04/04 04:30:19;;;;;;;8.65;3.45;;;;;;;;;;4972106;29;20166;-85
2021/04/04 04:32:46;;;;;;;4.60;2.70;;;;;;;;;;4951910;29;20663;-87
2021/04/04 04:35:13;;;;;;;5.63;2.83;;;;;;;;;;4955952;29;20632;-85
2021/04/04 04:37:40;;;;;;;6.85;3.35;;;;;;;;;;4956294;29;20180;-83
2021/04/04 04:40:07;;;;;;;10.45;3.85;;;;;;;;;;4956817;29;20165;-84
2021/04/04 04:42:35;;;;;;;3.40;1.90;;;;;;;;;;4958738;29;20259;-81
2021/04/04 04:48:05;;;;;;;5.75;3.03;;;;;;;;;;4956293;29;20739;-83
2021/04/04 04:50:31;;;;;;;6.07;3.25;;;;;;;;;;4957540;29;20173;-85
2021/04/04 04:52:58;;;;;;;3.60;2.78;;;;;;;;;;4955273;28;20260;-81
2021/04/04 04:55:25;;;;;;;3.30;2.70;;;;;;;;;;4955302;29;20255;-83
2021/04/04 04:57:51;;;;;;;6.40;3.13;;;;;;;;;;4955543;29;20179;-80
2021/04/04 05:03:21;;;;;;;4.55;3.30;;;;;;;;;;4955451;29;20543;-80
2021/04/04 05:05:47;;;;;;;4.18;2.33;;;;;;;;;;4954991;29;20177;-78
2021/04/04 05:08:15;;;;;;;4.40;2.63;;;;;;;;;;4954915;29;20288;-82
2021/04/04 05:10:41;;;;;;;10.20;2.67;;;;;;;;;;4955175;29;20747;-74
2021/04/04 05:13:08;;;;;;;4.97;3.28;;;;;;;;;;4955229;29;20169;-79
2021/04/04 05:18:37;;;;;;;6.53;3.00;;;;;;;;;;4955381;29;20174;-81
2021/04/04 05:21:04;;;;;;;9.73;3.28;;;;;;;;;;4954889;29;20371;-76
2021/04/04 05:23:30;;;;;;;6.50;3.10;;;;;;;;;;4955002;29;20168;-79
2021/04/04 05:25:57;;;;;;;5.13;3.42;;;;;;;;;;4955019;29;20168;-79
2021/04/04 05:28:23;;;;;;;4.22;2.85;;;;;;;;;;4954899;29;20675;-82
2021/04/04 05:30:49;;;;;;;5.38;3.10;;;;;;;;;;4954816;29;20573;-77
2021/04/04 05:33:15;;;;;;;7.63;3.63;;;;;;;;;;4954901;29;20172;-76
2021/04/04 05:35:42;;;;;;;6.30;3.60;;;;;;;;;;4954736;29;20797;-82
2021/04/04 05:38:08;;;;;;;5.45;3.35;;;;;;;;;;4954689;29;20456;-79
2021/04/04 05:40:34;;;;;;;6.88;3.95;;;;;;;;;;4954897;29;20529;-80
2021/04/04 05:43:06;;;;;;;4.95;3.97;;;;;;;;;;4954824;29;20249;-83
2021/04/04 05:48:40;;;;;;;7.60;4.03;;;;;;;;;;4955309;29;20721;-80
2021/04/04 05:51:12;;;;;;;4.70;3.60;;;;;;;;;;4954345;28;20302;-84
2021/04/04 05:53:45;;;;;;;5.38;4.55;;;;;;;;;;4937598;29;20194;-88
2021/04/04 05:56:14;;;;;;;5.70;3.92;;;;;;;;;;4957166;29;20200;-83
2021/04/04 05:58:40;;;;;;;7.68;4.00;;;;;;;;;;4955554;29;20206;-82
2021/04/04 06:01:22;;;;;;;8.13;4.63;;;;;;;;;;4956367;29;20178;-87
2021/04/04 06:03:48;;;;;;;8.38;3.78;;;;;;;;;;4957053;29;20422;-84
2021/04/04 06:06:14;;;;;;;6.00;3.30;;;;;;;;;;4970433;29;20265;-78
2021/04/04 06:08:59;;;;;;;5.70;3.73;;;;;;;;;;4947836;29;20479;-86
2021/04/04 06:11:30;;;;;;;5.60;3.78;;;;;;;;;;4957044;29;20434;-87
2021/04/04 06:14:07;;;;;;;5.05;3.20;;;;;;;;;;4960821;28;20178;-85
2021/04/04 06:16:42;;;;;;;7.53;2.97;;;;;;;;;;4965278;29;20186;-87
2021/04/04 06:19:20;;;;;;;6.57;3.60;;;;;;;;;;4969040;29;20163;-81
2021/04/04 06:21:54;;;;;;;5.77;3.20;;;;;;;;;;4967835;29;20232;-83
2021/04/04 06:24:26;;;;;;;7.20;3.77;;;;;;;;;;4965087;29;20454;-85
2021/04/04 06:27:02;;;;;;;5.60;3.30;;;;;;;;;;4959515;29;20803;-86
2021/04/04 06:29:34;;;;;;;7.70;4.30;;;;;;;;;;4959434;29;20431;-87
2021/04/04 06:32:06;;;;;;;4.07;3.10;;;;;;;;;;4959564;29;20420;-85
2021/04/04 06:34:34;;;;;;;9.10;4.03;;;;;;;;;;4926296;29;20425;-86
2021/04/04 06:37:02;;;;;;;5.23;4.30;;;;;;;;;;4959004;29;20454;-89
2021/04/04 06:39:31;;;;;;;9.13;4.67;;;;;;;;;;4958832;29;20425;-87
2021/04/04 06:42:11;;;;;;;7.53;4.43;;;;;;;;;;4958732;29;20429;-88
2021/04/04 06:44:53;;;;;;;5.77;4.50;;;;;;;;;;4958400;29;20422;-81
2021/04/04 06:47:27;;;;;;;7.30;5.37;;;;;;;;;;4957971;29;20473;-87
2021/04/04 06:49:53;;;;;;;5.97;5.33;;;;;;;;;;4958035;29;20944;-87
2021/04/04 06:52:25;;;;;;;9.23;6.13;;;;;;;;;;4957115;29;20482;-81
2021/04/04 06:55:02;;;;;;;5.40;4.60;;;;;;;;;;4957220;29;20471;-85
2021/04/04 06:57:34;;;;;;;4.77;4.13;;;;;;;;;;4957220;29;20423;-82
2021/04/04 07:00:13;;;;;;;6.53;4.30;;;;;;;;;;4957552;29;20479;-87
2021/04/04 07:03:11;;;;;;;6.80;4.73;;;;;;;;;;4958014;29;20419;-80
2021/04/04 07:05:43;;;;;;;6.57;3.93;;;;;;;;;;4924988;29;20516;-85
2021/04/04 07:08:18;;;;;;;8.73;5.27;;;;;;;;;;4957313;29;20564;-83
2021/04/04 07:10:55;;;;;;;7.70;4.87;;;;;;;;;;4957293;29;20827;-83
2021/04/04 07:13:33;;;;;;;7.37;4.90;;;;;;;;;;4958267;29;20419;-81
2021/04/04 07:16:18;;;;;;;4.30;3.90;;;;;;;;;;4957811;29;20419;-83
2021/04/04 07:18:44;;;;;;;7.07;4.43;;;;;;;;;;4957106;29;20423;-83
2021/04/04 07:21:10;;;;;;;10.00;5.10;;;;;;;;;;4957538;29;20486;-81
2021/04/04 07:23:54;;;;;;;5.97;3.93;;;;;;;;;;4940543;29;20427;-85
2021/04/04 07:26:30;;;;;;;6.47;4.40;;;;;;;;;;4957372;28;20487;-87
2021/04/04 07:28:56;;;;;;;7.10;4.43;;;;;;;;;;4957150;29;20511;-87
2021/04/04 07:31:25;;;;;;;5.37;4.13;;;;;;;;;;4957181;29;20427;-83
2021/04/04 07:33:57;;;;;;;7.53;4.53;;;;;;;;;;4957133;29;20885;-88
2021/04/04 07:36:32;;;;;;;8.80;4.63;;;;;;;;;;4957424;29;20459;-86
2021/04/04 07:38:58;;;;;;;6.87;4.40;;;;;;;;;;4957039;29;20510;-81
2021/04/04 07:41:38;;;;;;;6.17;4.33;;;;;;;;;;4957138;29;20507;-86
2021/04/04 07:47:13;;;;;;;7.40;4.50;;;;;;;;;;4956768;29;20477;-84
2021/04/04 07:49:41;;;;;;;7.13;4.43;;;;;;;;;;4955879;29;20446;-84
2021/04/04 07:52:16;;;;;;;8.23;4.23;;;;;;;;;;4956750;29;20570;-87
2021/04/04 07:54:54;;;;;;;7.50;4.07;;;;;;;;;;4957616;29;20419;-80
2021/04/04 07:57:39;;;;;;;6.83;4.30;;;;;;;;;;4956245;29;20418;-80
2021/04/04 08:03:11;;;;;;;7.80;4.70;;;;;;;;;;4963590;29;20941;-82
2021/04/04 08:05:39;;;;;;;8.87;4.53;;;;;;;;;;4959347;29;20458;-86
2021/04/04 08:08:06;;;;;;;5.63;3.80;;;;;;;;;;4939864;29;20530;-85
2021/04/04 08:10:36;;;;;;;6.30;3.93;;;;;;;;;;4969568;29;20793;-76
2021/04/04 08:13:14;;;;;;;7.13;4.40;;;;;;;;;;4971763;29;20448;-74
2021/04/04 08:18:44;;;;;;;8.13;4.60;;;;;;;;;;4956448;29;20466;-79
2021/04/04 08:21:14;;;;;;;5.70;4.40;;;;;;;;;;4955987;29;20420;-85
2021/04/04 08:23:46;;;;;;;8.33;4.30;;;;;;;;;;4956200;29;20446;-79
2021/04/04 08:26:16;;;;;;;6.83;4.23;;;;;;;;;;4962736;29;20471;-86
2021/04/04 08:28:44;;;;;;;10.20;4.37;;;;;;;;;;4955759;29;20517;-83
2021/04/04 08:34:18;;;;;;;11.33;4.53;;;;;;;;;;4955246;29;20479;-81
2021/04/04 08:36:56;;;;;;;12.00;4.20;;;;;;;;;;4954899;28;20419;-77
2021/04/04 08:39:24;;;;;;;6.60;5.00;;;;;;;;;;4955289;29;20898;-82
2021/04/04 08:41:50;;;;;;;6.20;4.87;;;;;;;;;;4938110;29;20423;-82
2021/04/04 08:44:25;;;;;;;4.93;4.07;;;;;;;;;;4955336;29;20953;-85
2021/04/04 08:49:55;;;;;;;5.30;4.50;;;;;;;;;;4955242;29;20503;-78
2021/04/04 08:52:50;;;;;;;4.83;4.43;;;;;;;;;;4955358;29;20471;-86
2021/04/04 08:55:21;;;;;;;5.60;5.03;;;;;;;;;;4903477;29;20458;-79
2021/04/04 08:57:48;;;;;;;7.63;4.57;;;;;;;;;;4954995;29;20419;-83
2021/04/04 09:00:15;;;;;;;5.23;4.57;;;;;;;;;;4955202;29;20431;-77
2021/04/04 09:02:47;;;;;;;7.90;4.87;;;;;;;;;;4955351;29;20408;-87
2021/04/04 09:05:13;;;;;;;5.60;4.40;;;;;;;;;;4955161;29;20575;-75
2021/04/04 09:07:45;;;;;;;4.90;3.93;;;;;;;;;;4954803;29;20481;-82
2021/04/04 09:10:14;;;;;;;4.80;4.00;;;;;;;;;;4954898;29;20428;-86
2021/04/04 09:12:41;;;;;;;5.33;3.33;;;;;;;;;;4956510;29;20419;-84
2021/04/04 09:15:11;;;;;;;5.70;3.63;;;;;;;;;;4955883;29;20975;-84
2021/04/04 09:17:38;;;;;;;5.67;3.20;;;;;;;;;;4955213;29;20467;-81
2021/04/04 09:20:07;;;;;;;4.50;3.60;;;;;;;;;;4954494;29;20591;-79
2021/04/04 09:22:36;;;;;;;4.67;3.90;;;;;;;;;;4954792;29;20452;-78
2021/04/04 09:25:06;;;;;;;4.40;3.93;;;;;;;;;;4955276;29;20510;-81
2021/04/04 09:27:42;;;;;;;6.20;5.20;;;;;;;;;;4954585;29;20479;-79
2021/04/04 09:30:22;;;;;;;4.23;3.80;;;;;;;;;;4954751;29;20431;-78
2021/04/04 09:32:48;;;;;;;5.10;3.60;;;;;;;;;;4954955;29;20451;-77
2021/04/04 09:35:16;;;;;;;5.53;3.83;;;;;;;;;;4954682;29;20483;-79
2021/04/04 09:37:42;;;;;;;3.43;2.90;;;;;;;;;;4954803;29;20462;-81
2021/04/04 09:40:09;;;;;;;4.30;3.70;;;;;;;;;;4954631;29;20495;-79
2021/04/04 09:42:36;;;;;;;4.03;3.40;;;;;;;;;;4955358;29;20958;-79
2021/04/04 09:45:15;;;;;;;5.83;3.30;;;;;;;;;;4954624;29;20416;-79
2021/04/04 09:47:42;;;;;;;5.20;2.63;;;;;;;;;;4957790;28;20486;-75
2021/04/04 09:50:18;;;;;;;3.67;3.33;;;;;;;;;;4958578;29;20917;-82
2021/04/04 09:52:44;;;;;;;3.80;3.50;;;;;;;;;;4958721;29;20466;-84
2021/04/04 09:55:14;;;;;;;6.00;3.57;;;;;;;;;;4958331;29;20415;-83
2021/04/04 09:57:43;;;;;;;4.10;3.70;;;;;;;;;;4958578;29;20419;-79
2021/04/04 10:00:21;;;;;;;3.50;3.17;;;;;;;;;;4959012;29;20423;-72
2021/04/04 10:02:51;;;;;;;3.90;3.00;;;;;;;;;;4963073;29;20762;-83
2021/04/04 10:05:34;;;;;;;4.67;2.97;;;;;;;;;;4959045;29;20424;-78
2021/04/04 10:08:10;;;;;;;4.50;3.10;;;;;;;;;;4959621;29;20483;-84
2021/04/04 10:10:36;;;;;;;3.47;3.17;;;;;;;;;;4959204;29;20419;-78
2021/04/04 10:13:03;;;;;;;2.60;2.40;;;;;;;;;;4958605;29;20475;-79
2021/04/04 10:15:37;;;;;;;2.77;2.57;;;;;;;;;;4958114;29;20762;-86
2021/04/04 10:18:05;;;;;;;4.63;2.77;;;;;;;;;;4961022;29;20822;-74
2021/04/04 10:20:32;;;;;;;3.57;2.37;;;;;;;;;;4968463;29;20999;-74
2021/04/04 10:22:58;;;;;;;3.63;3.00;;;;;;;;;;4965739;29;20423;-78
2021/04/04 10:25:25;;;;;;;4.33;2.90;;;;;;;;;;4959447;29;20418;-77
2021/04/04 10:28:17;;;;;;;8.10;3.30;;;;;;;;;;4940844;29;21109;-85
2021/04/04 10:30:43;;;;;;;4.00;2.80;;;;;;;;;;4955252;29;20431;-83
2021/04/04 10:33:25;;;;;;;2.83;2.63;;;;;;;;;;4957830;29;20510;-75
2021/04/04 10:35:53;;;;;;;5.53;3.20;;;;;;;;;;4957157;29;20446;-73
2021/04/04 10:38:26;;;;;;;4.20;2.07;;;;;;;;;;4940193;29;20427;-73
2021/04/04 10:40:56;;;;;;;3.83;2.43;;;;;;;;;;4957387;29;20837;-71
2021/04/04 10:43:24;;;;;;;5.67;2.67;;;;;;;;;;4940409;29;20934;-75
2021/04/04 10:46:04;;;;;;;3.47;2.23;;;;;;;;;;4957273;29;20408;-81
2021/04/04 10:48:31;;;;;;;3.73;2.70;;;;;;;;;;4949528;29;20561;-82
2021/04/04 10:50:57;;;;;;;2.70;2.50;;;;;;;;;;4957179;28;20463;-82
2021/04/04 10:53:23;;;;;;;3.50;2.47;;;;;;;;;;4957220;29;20467;-78
2021/04/04 10:55:50;;;;;;;3.93;2.40;;;;;;;;;;4957320;29;20823;-76
2021/04/04 10:58:20;;;;;;;3.93;2.93;;;;;;;;;;4939964;29;20427;-82
2021/04/04 11:00:46;;;;;;;5.00;3.43;;;;;;;;;;4956907;28;20479;-75
2021/04/04 11:03:12;;;;;;;3.50;2.73;;;;;;;;;;4957543;29;20844;-83
2021/04/04 11:05:39;;;;;;;3.10;2.37;;;;;;;;;;4940479;29;20509;-77
2021/04/04 11:08:05;;;;;;;4.27;2.80;;;;;;;;;;4957189;29;20467;-84
2021/04/04 11:10:31;;;;;;;2.70;2.50;;;;;;;;;;4958131;29;20907;-77
2021/04/04 11:13:00;;;;;;;5.83;3.27;;;;;;;;;;4958416;29;20499;-82
2021/04/04 11:15:30;;;;;;;4.10;2.63;;;;;;;;;;4957970;29;20770;-76
2021/04/04 11:21:02;;;;;;;3.30;2.70;;;;;;;;;;4956326;29;20858;-77
2021/04/04 11:23:28;;;;;;;4.90;3.10;;;;;;;;;;4957422;29;20503;-73
2021/04/04 11:25:54;;;;;;;3.20;2.90;;;;;;;;;;4957421;29;20415;-81
2021/04/04 11:28:21;;;;;;;4.53;2.87;;;;;;;;;;4957017;29;20516;-76
2021/04/04 11:30:48;;;;;;;5.33;3.20;;;;;;;;;;4956905;29;20412;-81
2021/04/04 11:33:18;;;;;;;3.03;2.70;;;;;;;;;;4956990;29;20742;-80
2021/04/04 11:36:02;;;;;;;6.53;4.20;;;;;;;;;;4957277;29;20494;-80
2021/04/04 11:38:29;;;;;;;6.40;5.40;;;;;;;;;;4957328;29;20883;-77
2021/04/04 11:41:15;;;;;;;7.17;6.00;;;;;;;;;;4957178;29;20551;-81
2021/04/04 11:43:41;;;;;;;4.30;3.80;;;;;;;;;;4957142;29;20743;-82
2021/04/04 11:46:26;;;;;;;3.80;3.20;;;;;;;;;;4956560;29;20636;-74
2021/04/04 11:48:52;;;;;;;4.00;3.63;;;;;;;;;;4956625;29;20479;-75
2021/04/04 11:51:18;;;;;;;3.70;2.90;;;;;;;;;;4956488;28;20467;-84
2021/04/04 11:53:45;;;;;;;5.53;3.63;;;;;;;;;;4958437;29;20469;-80
2021/04/04 11:56:31;;;;;;;4.33;3.93;;;;;;;;;;4960797;29;20612;-79
2021/04/04 11:58:57;;;;;;;6.17;3.17;;;;;;;;;;4958889;29;20451;-81
2021/04/04 12:01:23;;;;;;;3.33;2.97;;;;;;;;;;4955502;29;20873;-79
2021/04/04 12:03:49;;;;;;;4.50;2.57;;;;;;;;;;4956487;29;20422;-82
2021/04/04 12:06:15;;;;;;;3.17;2.60;;;;;;;;;;4956097;29;20515;-85
2021/04/04 12:08:41;;;;;;;7.80;3.77;;;;;;;;;;4956501;29;20479;-82
2021/04/04 12:11:07;;;;;;;6.30;3.87;;;;;;;;;;4955447;28;20459;-78
2021/04/04 12:13:33;;;;;;;5.43;3.23;;;;;;;;;;4956158;29;20775;-81
2021/04/04 12:15:59;;;;;;;5.10;3.03;;;;;;;;;;4955863;29;20416;-82
2021/04/04 12:21:29;;;;;;;5.20;3.60;;;;;;;;;;4955980;29;20430;-82
2021/04/04 12:23:55;;;;;;;3.83;2.83;;;;;;;;;;4956370;29;20412;-81
2021/04/04 12:26:21;;;;;;;4.10;2.67;;;;;;;;;;4955700;29;20422;-77
2021/04/04 12:28:47;;;;;;;6.23;3.40;;;;;;;;;;4957953;29;20819;-76
2021/04/04 12:31:14;;;;;;;4.13;3.40;;;;;;;;;;4938941;29;20440;-86
2021/04/04 12:33:40;;;;;;;3.87;3.07;;;;;;;;;;4956667;29;20781;-79
2021/04/04 12:36:06;;;;;;;3.50;2.97;;;;;;;;;;4956413;29;20420;-82
2021/04/04 12:38:34;;;;;;;3.40;2.70;;;;;;;;;;4956834;29;20432;-85
2021/04/04 12:41:01;;;;;;;5.43;4.47;;;;;;;;;;4956097;29;20965;-81
2021/04/04 12:43:27;;;;;;;5.30;3.50;;;;;;;;;;4956359;29;20791;-83
2021/04/04 12:45:53;;;;;;;4.37;2.97;;;;;;;;;;4957298;29;20415;-74
2021/04/04 12:51:23;;;;;;;3.30;2.70;;;;;;;;;;4964132;29;20957;-83
2021/04/04 12:53:50;;;;;;;2.83;2.63;;;;;;;;;;4937143;29;20471;-85
2021/04/04 12:56:31;;;;;;;6.77;3.13;;;;;;;;;;4937928;29;20417;-83
2021/04/04 12:58:57;;;;;;;4.70;3.43;;;;;;;;;;4936691;29;20829;-80
2021/04/04 13:01:23;;;;;;;4.30;3.40;;;;;;;;;;4936668;29;20416;-83
2021/04/04 13:03:50;;;;;;;4.70;2.83;;;;;;;;;;4936476;29;20449;-81
2021/04/04 13:06:20;;;;;;;5.27;3.43;;;;;;;;;;4936296;29;20444;-83
2021/04/04 13:08:46;;;;;;;4.27;3.53;;;;;;;;;;4936501;29;20476;-79
2021/04/04 13:11:13;;;;;;;4.93;3.37;;;;;;;;;;4935867;29;20424;-81
2021/04/04 13:13:40;;;;;;;3.67;2.80;;;;;;;;;;4936043;29;20428;-80
2021/04/04 13:16:07;;;;;;;3.47;3.07;;;;;;;;;;4936681;29;20556;-82
2021/04/04 13:21:37;;;;;;;2.97;2.70;;;;;;;;;;4935476;29;20473;-73
2021/04/04 13:24:03;;;;;;;4.47;3.77;;;;;;;;;;4935260;29;20432;-81
2021/04/04 13:26:31;;;;;;;2.43;2.33;;;;;;;;;;4935518;29;20441;-81
2021/04/04 13:29:04;;;;;;;3.63;3.33;;;;;;;;;;4935282;29;20841;-83
2021/04/04 13:31:31;;;;;;;3.57;3.27;;;;;;;;;;4935436;29;20427;-73
2021/04/04 13:34:26;;;;;;;4.53;3.63;;;;;;;;;;4935465;29;20452;-78
2021/04/04 13:36:53;;;;;;;6.53;3.27;;;;;;;;;;4926966;29;20458;-77
2021/04/04 13:39:22;;;;;;;5.70;3.50;;;;;;;;;;4934690;29;20416;-85
2021/04/04 13:41:48;;;;;;;5.80;3.00;;;;;;;;;;4935465;29;20455;-81
2021/04/04 13:44:15;;;;;;;5.10;3.13;;;;;;;;;;4939383;29;20514;-80
2021/04/04 13:46:47;;;;;;;3.47;3.17;;;;;;;;;;4946862;29;20424;-78
2021/04/04 13:49:13;;;;;;;2.80;2.60;;;;;;;;;;4940865;29;20447;-80
2021/04/04 13:51:40;;;;;;;3.70;3.37;;;;;;;;;;4936057;29;20427;-82
2021/04/04 13:54:11;;;;;;;5.73;3.13;;;;;;;;;;4936952;29;20773;-78
2021/04/04 13:56:38;;;;;;;3.70;3.40;;;;;;;;;;4954476;29;20428;-83
2021/04/04 13:59:10;;;;;;;3.93;3.47;;;;;;;;;;4954279;29;20856;-81
2021/04/04 14:01:36;;;;;;;3.87;2.93;;;;;;;;;;4954156;29;20506;-77
2021/04/04 14:07:11;;;;;;;4.10;3.40;;;;;;;;;;4954195;29;20498;-79
2021/04/04 14:09:38;;;;;;;3.40;3.13;;;;;;;;;;4954112;29;20431;-84
2021/04/04 14:12:05;;;;;;;3.57;3.27;;;;;;;;;;4954221;29;20507;-82
2021/04/04 14:14:32;;;;;;;3.47;2.83;;;;;;;;;;4937481;29;20527;-79
2021/04/04 14:16:59;;;;;;;4.10;3.33;;;;;;;;;;4954468;29;20407;-78
2021/04/04 14:19:26;;;;;;;3.67;2.83;;;;;;;;;;4953912;29;20451;-81
2021/04/04 14:21:53;;;;;;;5.50;3.57;;;;;;;;;;4954194;29;20427;-78
2021/04/04 14:24:19;;;;;;;3.70;2.97;;;;;;;;;;4954171;29;20867;-79
2021/04/04 14:26:45;;;;;;;5.00;3.13;;;;;;;;;;4954138;29;20423;-81
2021/04/04 14:29:11;;;;;;;3.37;3.07;;;;;;;;;;4953820;29;20468;-80
2021/04/04 14:31:37;;;;;;;3.60;3.30;;;;;;;;;;4954360;29;20482;-79
2021/04/04 14:37:06;;;;;;;5.60;3.10;;;;;;;;;;4957600;29;20483;-76
2021/04/04 14:39:32;;;;;;;8.17;3.63;;;;;;;;;;4957878;29;20427;-78
2021/04/04 14:41:58;;;;;;;4.13;3.67;;;;;;;;;;4957917;29;20801;-76
2021/04/04 14:44:27;;;;;;;9.03;6.40;;;;;;;;;;4940277;29;20439;-86
2021/04/04 14:46:53;;;;;;;5.23;4.47;;;;;;;;;;4957845;29;20427;-77
2021/04/04 14:52:22;;;;;;;5.30;3.13;;;;;;;;;;4957551;28;20839;-83
2021/04/04 14:54:48;;;;;;;4.50;3.63;;;;;;;;;;4959584;29;20412;-79
2021/04/04 14:57:14;;;;;;;9.03;2.87;;;;;;;;;;4960006;29;20781;-81
2021/04/04 14:59:40;;;;;;;5.23;3.30;;;;;;;;;;4957196;29;20419;-76
2021/04/04 15:07:54;;;;;;;5.27;3.50;;;;;;;;;;4957105;29;20570;-77
2021/04/04 15:10:20;;;;;;;4.00;3.10;;;;;;;;;;4956526;29;20451;-76
2021/04/04 15:12:46;;;;;;;3.70;3.23;;;;;;;;;;4960537;29;20495;-73
2021/04/04 15:15:12;;;;;;;4.27;2.50;;;;;;;;;;4958940;29;20847;-77
2021/04/04 15:17:38;;;;;;;4.03;3.47;;;;;;;;;;4954164;29;20514;-74
2021/04/04 15:20:04;;;;;;;3.13;2.30;;;;;;;;;;4955324;29;21265;-80
2021/04/04 15:22:31;;;;;;;4.40;3.50;;;;;;;;;;4955595;29;20514;-77
2021/04/04 15:24:57;;;;;;;5.17;3.00;;;;;;;;;;4955526;29;20471;-79
2021/04/04 15:27:23;;;;;;;3.73;3.33;;;;;;;;;;4955259;29;20474;-83
2021/04/04 15:29:49;;;;;;;5.17;2.70;;;;;;;;;;4954914;29;20962;-82
2021/04/04 15:32:15;;;;;;;5.30;3.67;;;;;;;;;;4954878;29;20519;-81
2021/04/04 15:37:45;;;;;;;3.40;2.90;;;;;;;;;;4961909;29;20440;-75
2021/04/04 15:40:11;;;;;;;4.10;3.03;;;;;;;;;;4960990;29;20431;-82
2021/04/04 15:42:37;;;;;;;2.93;2.67;;;;;;;;;;4956544;29;20419;-82
2021/04/04 15:45:07;;;;;;;2.73;2.53;;;;;;;;;;4956101;28;20419;-81
2021/04/04 15:47:33;;;;;;;4.80;3.40;;;;;;;;;;4954590;29;20550;-83
2021/04/04 15:53:04;;;;;;;4.23;2.60;;;;;;;;;;4955850;29;20525;-83
2021/04/04 15:55:30;;;;;;;4.37;3.40;;;;;;;;;;4955662;29;20404;-84
2021/04/04 15:57:58;;;;;;;7.77;3.40;;;;;;;;;;4938556;29;20442;-82
2021/04/04 16:00:25;;;;;;;5.10;3.20;;;;;;;;;;4956031;29;20451;-83
2021/04/04 16:02:51;;;;;;;3.53;3.03;;;;;;;;;;4956147;29;20446;-85
2021/04/04 16:05:18;;;;;;;3.60;3.20;;;;;;;;;;4955907;29;20790;-83
2021/04/04 16:07:44;;;;;;;6.03;2.90;;;;;;;;;;4956069;29;20467;-83
2021/04/04 16:12:50;;;;;;;4.30;2.40;;;;;;;;;;4957472;29;20411;-83
2021/04/04 16:15:17;;;;;;;5.20;2.90;;;;;;;;;;4956466;29;20864;-81
2021/04/04 16:17:44;;;;;;;3.20;2.50;;;;;;;;;;4956303;29;20506;-78
2021/04/04 16:23:13;;;;;;;2.97;2.67;;;;;;;;;;4955416;29;20491;-83
2021/04/04 16:25:42;;;;;;;4.27;3.83;;;;;;;;;;4955881;29;20416;-86
2021/04/04 16:28:10;;;;;;;5.17;3.20;;;;;;;;;;4955674;29;20523;-83
2021/04/04 16:30:36;;;;;;;5.50;2.87;;;;;;;;;;4955595;29;20439;-84
2021/04/04 16:33:03;;;;;;;6.13;2.73;;;;;;;;;;4955610;29;20431;-81